Sedov — UELO — position and weather

sailwx.info

Track history (hours):
 
Tides and Currents Weather Stations Pressure Air Temp Water Temp Dewpoint Dewpoint Depression Visibility Wind Speed Wind Dir Waves Ship Positions

Sedov (Russia)

Last reported at 2018-May-20 22:45 UTC. Time now 2018-May-21 15:13 UTC.
Position N 56°50' E 007°20'.

Length 118 m; draft 6.5 m.

Type: Sailing vessel. MMSI: 273510000.

Date/timePositionNaut miles runAvg speedWind from/ knotsBaromVisibWave heightAir tempDewpointWater temp
2018-May-20 22:45N 56°50' E 007°20'2 8.0
2018-May-20 22:29N 56°48' E 007°20'2 4.0
2018-May-20 21:58N 56°46' E 007°20'0 0.7
2018-May-20 21:25N 56°46' E 007°20'0 0.7
2018-May-20 20:58N 56°45' E 007°21'0 0.9
2018-May-20 20:28N 56°45' E 007°21'0 0.6
2018-May-20 19:52N 56°45' E 007°22'3 0.2
2018-May-20 07:40N 56°44' E 007°26'0 0.4
2018-May-20 07:28N 56°44' E 007°26'0 0.2
2018-May-20 06:58N 56°44' E 007°27'0 0.2
2018-May-20 06:22N 56°44' E 007°27'0 0.1
2018-May-20 05:10N 56°44' E 007°27'0 0.2
2018-May-20 04:58N 56°44' E 007°27'0 0.2
2018-May-20 04:28N 56°44' E 007°27'0 0.3
2018-May-20 03:58N 56°44' E 007°27'0 0.4
2018-May-20 03:28N 56°44' E 007°27'0 0.4
2018-May-20 02:58N 56°44' E 007°27'0 0.4
2018-May-20 02:25N 56°44' E 007°27'0 0.4
2018-May-20 01:58N 56°44' E 007°26'3 0.3
2018-May-19 17:54N 56°45' E 007°21'6 6.5
2018-May-19 17:01N 56°50' E 007°23'1 8.4
2018-May-19 16:54N 56°51' E 007°24'4 8.3
2018-May-19 16:29N 56°55' E 007°26'5 8.5
2018-May-19 15:56N 56°59' E 007°28'5 8.5
2018-May-19 15:24N 57°03' E 007°31'7 8.4
2018-May-19 14:36N 57°10' E 007°35'1 8.1
2018-May-19 14:29N 57°11' E 007°35'4 8.1
2018-May-19 13:58N 57°15' E 007°37'4 7.9
2018-May-19 13:27N 57°18' E 007°40'40 7.9
2018-May-19 08:25N 57°29' E 008°51'3 7.9
2018-May-19 08:00N 57°30' E 008°57'5 8.0
2018-May-19 07:24N 57°31' E 009°06'2 3.6
2018-May-19 06:42N 57°32' E 009°10'0 1.0
2018-May-19 06:29N 57°32' E 009°11'1 1.3
2018-May-19 06:00N 57°32' E 009°12'0 0.6
2018-May-19 05:30N 57°32' E 009°12'0 0.3
2018-May-19 04:48N 57°32' E 009°13'0 0.2
2018-May-19 04:30N 57°32' E 009°13'0 0.4
2018-May-19 03:16N 57°32' E 009°14'14 1.6
2018-May-18 18:58N 57°35' E 009°38'1 2.0
2018-May-18 18:30N 57°36' E 009°40'1 2.2
2018-May-18 18:00N 57°36' E 009°42'1 2.8
2018-May-18 17:30N 57°36' E 009°44'2 3.3
2018-May-18 17:00N 57°37' E 009°47'2 3.6
2018-May-18 16:30N 57°37' E 009°51'2 3.9
2018-May-18 16:00N 57°38' E 009°54'3 5.1
2018-May-18 15:30N 57°36' E 009°58'0 0.9
2018-May-18 15:00N 57°36' E 009°59'0 0.0
2018-May-18 14:19N 57°36' E 009°59'0 0.0
2018-May-18 13:37N 57°36' E 009°59'0 0.0
2018-May-18 13:25N 57°36' E 009°59'0 0.0
2018-May-18 12:43N 57°36' E 009°59'0 0.0
2018-May-18 04:25N 57°36' E 009°59'0 0.0
2018-May-18 03:25N 57°36' E 009°59'0 0.0
2018-May-17 19:10N 57°36' E 009°59'0 0.0
2018-May-17 01:28N 57°36' E 009°59'0 0.0
2018-May-17 00:55N 57°36' E 009°59'0 0.0
2018-May-17 00:25N 57°36' E 009°59'0 0.0
2018-May-16 23:46N 57°36' E 009°59'0 0.0
2018-May-16 23:10N 57°36' E 009°59'0 0.0
2018-May-16 22:58N 57°36' E 009°58'0 0.0
2018-May-16 22:28N 57°36' E 009°59'0 0.0
2018-May-16 21:49N 57°36' E 009°59'0 0.0
2018-May-16 21:28N 57°36' E 009°59'0 0.0
2018-May-16 20:58N 57°36' E 009°59'0 0.0
2018-May-16 20:25N 57°36' E 009°59'0 0.0
2018-May-16 19:58N 57°36' E 009°59'0 0.0
2018-May-16 19:16N 57°36' E 009°59'0 0.0
2018-May-16 16:46N 57°36' E 009°59'0 0.0
2018-May-16 16:04N 57°36' E 009°59'0 0.0
2018-May-16 15:55N 57°36' E 009°59'0 0.0
2018-May-16 15:25N 57°36' E 009°58'0 0.0
2018-May-16 15:00N 57°36' E 009°59'0 0.0
2018-May-16 14:30N 57°36' E 009°59'0 0.0
2018-May-16 14:00N 57°36' E 009°59'0 0.0
2018-May-16 13:30N 57°36' E 009°59'0 0.0
2018-May-16 12:59N 57°36' E 009°58'0 0.0
2018-May-16 12:30N 57°36' E 009°59'0 0.0
2018-May-16 12:00N 57°36' E 009°59'0 0.3
2018-May-16 11:30N 57°36' E 009°58'2 3.7
2018-May-16 11:00N 57°37' E 009°56'4 8.7
2018-May-16 10:30N 57°38' E 009°48'2 3.1
2018-May-16 10:00N 57°39' E 009°46'0 1.0
2018-May-16 09:31N 57°39' E 009°45'1 1.0
2018-May-16 09:00N 57°39' E 009°44'1 1.6
2018-May-16 08:30N 57°40' E 009°43'2 3.0
2018-May-16 08:00N 57°41' E 009°41'2 4.4
2018-May-16 07:30N 57°40' E 009°37'3 5.2
2018-May-16 07:00N 57°40' E 009°32'3 5.3
2018-May-16 06:30N 57°39' E 009°27'3 5.5
2018-May-16 06:00N 57°38' E 009°23'3 5.4
2018-May-16 05:31N 57°37' E 009°18'4 7.4
2018-May-16 05:00N 57°35' E 009°12'5 8.9
2018-May-16 04:30N 57°34' E 009°04'5 8.8
2018-May-16 03:57N 57°32' E 008°56'171 6.9
2018-May-15 03:11N 54°59' E 006°39'2 8.8
2018-May-15 02:58N 54°57' E 006°41'10 9.2
2018-May-15 01:53N 54°50' E 006°52'4 9.4
2018-May-15 01:30N 54°47' E 006°56'5 9.1
2018-May-15 01:00N 54°43' E 007°00'4 9.2
2018-May-15 00:30N 54°39' E 007°04'8 9.1
2018-May-14 23:37N 54°32' E 007°12'44 8.1
2018-May-14 18:15N 54°01' E 008°04'4 8.5
2018-May-14 17:49N 54°01' E 008°10'4 9.2
2018-May-14 17:26N 54°00' E 008°16'510.5
2018-May-14 16:59N 53°59' E 008°24'511.2
2018-May-14 16:30N 53°58' E 008°33'610.8
2018-May-14 16:00N 53°55' E 008°41'611.6
2018-May-14 15:30N 53°51' E 008°46'611.2
2018-May-14 15:01N 53°51' E 008°56'510.2
2018-May-14 14:30N 53°52' E 009°04'5 9.4
2018-May-14 14:00N 53°53' E 009°12'4 7.9
2018-May-14 13:30N 53°52' E 009°18'4 7.3
2018-May-14 13:00N 53°49' E 009°22'3 6.6
2018-May-14 12:30N 53°46' E 009°24'3 6.4
2018-May-14 12:00N 53°43' E 009°28'3 5.6
2018-May-14 11:30N 53°41' E 009°30'3 5.2
2018-May-14 11:00N 53°39' E 009°32'3 5.3
2018-May-14 10:30N 53°37' E 009°35'3 5.4
2018-May-14 10:00N 53°35' E 009°38'3 6.6
2018-May-14 09:30N 53°34' E 009°43'4 8.9
2018-May-14 09:00N 53°33' E 009°50'4 8.4
2018-May-14 08:30N 53°33' E 009°58'0 0.6
2018-May-14 07:58N 53°33' E 009°58'0 0.0
2018-May-14 07:28N 53°33' E 009°58'0 0.0
2018-May-14 06:58N 53°33' E 009°58'0 0.0
2018-May-14 06:28N 53°33' E 009°58'0 0.0
2018-May-14 05:58N 53°33' E 009°58'0 0.0
2018-May-14 05:28N 53°33' E 009°58'0 0.0
2018-May-14 04:58N 53°33' E 009°58'0 0.0
2018-May-14 04:28N 53°33' E 009°58'0 0.0
2018-May-14 03:58N 53°33' E 009°58'0 0.0
2018-May-14 03:28N 53°33' E 009°58'0 0.0
2018-May-14 02:58N 53°33' E 009°58'0 0.0
2018-May-14 02:28N 53°33' E 009°58'0 0.0
2018-May-14 01:58N 53°33' E 009°58'0 0.0
2018-May-14 01:28N 53°33' E 009°58'0 0.0
2018-May-14 00:58N 53°33' E 009°58'0 0.0
2018-May-14 00:28N 53°33' E 009°58'0 0.0
2018-May-13 23:58N 53°33' E 009°58'0 0.0
2018-May-13 23:28N 53°33' E 009°58'0 0.0
2018-May-13 22:58N 53°33' E 009°58'0 0.0
2018-May-13 22:28N 53°33' E 009°58'0 0.0
2018-May-13 21:58N 53°33' E 009°58'0 0.0
2018-May-13 21:28N 53°33' E 009°58'0 0.0
2018-May-13 20:58N 53°33' E 009°58'0 0.0
2018-May-13 20:30N 53°33' E 009°58'0 0.5
2018-May-13 20:00N 53°33' E 009°58'3 5.0
2018-May-13 19:31N 53°32' E 009°53'3 5.0
2018-May-13 19:00N 53°33' E 009°49'3 5.5
2018-May-13 18:30N 53°34' E 009°45'3 5.1
2018-May-13 18:00N 53°34' E 009°40'3 5.3
2018-May-13 17:30N 53°34' E 009°45'3 7.0
2018-May-13 17:00N 53°33' E 009°51'3 6.9
2018-May-13 16:30N 53°33' E 009°56'2 3.6
2018-May-13 16:00N 53°32' E 009°59'0 0.1
2018-May-13 15:30N 53°32' E 009°59'1 1.9
2018-May-13 15:00N 53°33' E 009°58'0 0.0
2018-May-13 14:28N 53°33' E 009°58'0 0.0
2018-May-13 13:58N 53°33' E 009°58'0 0.0
2018-May-13 13:28N 53°33' E 009°58'0 0.0
2018-May-13 12:58N 53°33' E 009°58'0 0.0
2018-May-13 12:28N 53°33' E 009°58'0 0.0
2018-May-13 11:58N 53°33' E 009°58'0 0.0
2018-May-13 11:25N 53°33' E 009°58'0 0.0
2018-May-13 10:55N 53°33' E 009°58'0 0.0
2018-May-13 10:28N 53°33' E 009°58'0 0.0
2018-May-13 09:58N 53°33' E 009°58'0 0.0
2018-May-13 09:28N 53°33' E 009°58'0 0.0
2018-May-13 08:58N 53°33' E 009°58'0 0.0
2018-May-13 08:28N 53°33' E 009°58'0 0.0
2018-May-13 07:58N 53°33' E 009°58'0 0.0
2018-May-13 07:28N 53°33' E 009°58'0 0.0
2018-May-13 06:58N 53°33' E 009°58'0 0.0
2018-May-13 06:28N 53°33' E 009°58'0 0.0
2018-May-13 05:58N 53°33' E 009°58'0 0.0
2018-May-13 05:28N 53°33' E 009°58'0 0.0
2018-May-13 04:58N 53°33' E 009°58'0 0.0
2018-May-13 04:28N 53°33' E 009°58'0 0.0
2018-May-13 03:58N 53°33' E 009°58'0 0.0
2018-May-13 03:28N 53°33' E 009°58'0 0.0
2018-May-13 02:58N 53°33' E 009°58'0 0.0
2018-May-13 02:28N 53°33' E 009°58'0 0.0
2018-May-13 01:58N 53°33' E 009°58'0 0.0
2018-May-13 01:28N 53°33' E 009°58'0 0.0
2018-May-13 00:58N 53°33' E 009°58'0 0.0
2018-May-13 00:28N 53°33' E 009°58'0 0.0
2018-May-12 23:58N 53°33' E 009°58'0 0.0
2018-May-12 23:28N 53°33' E 009°58'0 0.0
2018-May-12 22:58N 53°33' E 009°58'0 0.0
2018-May-12 22:28N 53°33' E 009°58'0 0.0
2018-May-12 21:58N 53°33' E 009°58'0 0.0
2018-May-12 21:28N 53°33' E 009°58'0 0.0
2018-May-12 20:58N 53°33' E 009°58'0 0.0
2018-May-12 20:28N 53°33' E 009°58'0 0.0
2018-May-12 19:58N 53°33' E 009°58'0 0.0
2018-May-12 19:28N 53°33' E 009°58'0 0.1
2018-May-12 18:58N 53°33' E 009°58'0 0.1
2018-May-12 18:28N 53°33' E 009°58'0 0.0
2018-May-12 17:58N 53°33' E 009°58'0 0.0
2018-May-12 17:28N 53°33' E 009°58'0 0.0
2018-May-12 16:58N 53°33' E 009°58'0 0.0
2018-May-12 16:28N 53°33' E 009°58'0 0.0
2018-May-12 15:58N 53°33' E 009°58'0 0.0
2018-May-12 15:28N 53°33' E 009°58'0 0.0
2018-May-12 14:58N 53°33' E 009°58'0 0.0
2018-May-12 14:28N 53°33' E 009°58'0 0.0
2018-May-12 13:58N 53°33' E 009°58'0 0.0
2018-May-12 13:28N 53°33' E 009°58'0 0.0
2018-May-12 12:58N 53°33' E 009°58'0 0.0
2018-May-12 12:28N 53°33' E 009°58'0 0.0
2018-May-12 11:58N 53°33' E 009°58'0 0.0
2018-May-12 11:28N 53°33' E 009°58'0 0.0
2018-May-12 10:58N 53°33' E 009°58'0 0.0
2018-May-12 10:28N 53°33' E 009°58'0 0.0
2018-May-12 09:58N 53°33' E 009°58'0 0.0
2018-May-12 09:28N 53°33' E 009°58'0 0.0
2018-May-12 08:58N 53°33' E 009°58'0 0.0
2018-May-12 08:28N 53°33' E 009°58'0 0.0
2018-May-12 07:58N 53°33' E 009°58'0 0.0
2018-May-12 07:28N 53°33' E 009°58'0 0.0
2018-May-12 06:58N 53°33' E 009°58'0 0.0
2018-May-12 06:28N 53°33' E 009°58'0 0.0
2018-May-12 05:58N 53°33' E 009°58'0 0.0
2018-May-12 05:28N 53°33' E 009°58'0 0.0
2018-May-12 04:58N 53°33' E 009°58'0 0.0
2018-May-12 04:28N 53°33' E 009°58'0 0.0
2018-May-12 03:58N 53°33' E 009°58'0 0.0
2018-May-12 03:28N 53°33' E 009°58'0 0.0
2018-May-12 02:58N 53°33' E 009°58'0 0.0
2018-May-12 02:28N 53°33' E 009°58'0 0.0
2018-May-12 01:58N 53°33' E 009°58'0 0.0
2018-May-12 01:28N 53°33' E 009°58'0 0.0
2018-May-12 00:58N 53°33' E 009°58'0 0.0
2018-May-12 00:28N 53°33' E 009°58'0 0.0
2018-May-11 23:58N 53°33' E 009°58'0 0.0
2018-May-11 23:28N 53°33' E 009°58'0 0.0
2018-May-11 22:58N 53°33' E 009°58'0 0.0
2018-May-11 22:28N 53°33' E 009°58'0 0.0
2018-May-11 21:58N 53°33' E 009°58'0 0.0
2018-May-11 21:28N 53°33' E 009°58'0 0.0
2018-May-11 20:58N 53°33' E 009°58'0 0.0
2018-May-11 20:28N 53°33' E 009°58'0 0.0
2018-May-11 19:58N 53°33' E 009°58'0 0.0
2018-May-11 19:28N 53°33' E 009°58'0 0.0
2018-May-11 18:58N 53°33' E 009°58'0 0.0
2018-May-11 18:28N 53°33' E 009°58'0 0.0
2018-May-11 17:58N 53°33' E 009°58'0 0.0
2018-May-11 17:28N 53°33' E 009°58'0 0.0
2018-May-11 16:58N 53°33' E 009°58'0 0.0
2018-May-11 16:28N 53°33' E 009°58'0 0.0
2018-May-11 15:58N 53°33' E 009°58'0 0.0
2018-May-11 15:28N 53°33' E 009°58'0 0.0
2018-May-11 14:58N 53°33' E 009°58'0 0.0
2018-May-11 14:28N 53°33' E 009°58'0 0.0
2018-May-11 13:58N 53°33' E 009°58'0 0.0
2018-May-11 13:28N 53°33' E 009°58'0 0.0
2018-May-11 12:58N 53°33' E 009°58'0 0.0
2018-May-11 12:28N 53°33' E 009°58'0 0.0
2018-May-11 11:55N 53°33' E 009°58'0 0.0
2018-May-11 11:28N 53°33' E 009°58'0 0.0
2018-May-11 10:58N 53°33' E 009°58'0 0.0
2018-May-11 10:28N 53°33' E 009°58'0 0.0
2018-May-11 09:58N 53°33' E 009°58'0 0.0
2018-May-11 09:28N 53°33' E 009°58'0 0.0
2018-May-11 08:58N 53°33' E 009°58'0 0.0
2018-May-11 08:28N 53°33' E 009°58'0 0.0
2018-May-11 07:58N 53°33' E 009°58'0 0.0
2018-May-11 07:28N 53°33' E 009°58'0 0.0
2018-May-11 06:58N 53°33' E 009°58'0 0.0
2018-May-11 06:28N 53°33' E 009°58'0 0.0
2018-May-11 05:55N 53°33' E 009°58'0 0.0
2018-May-11 05:28N 53°33' E 009°58'0 0.0
2018-May-11 04:58N 53°33' E 009°58'0 0.0
2018-May-11 04:28N 53°33' E 009°58'0 0.0
2018-May-11 03:58N 53°33' E 009°58'0 0.0
2018-May-11 03:28N 53°33' E 009°58'0 0.0
2018-May-11 02:58N 53°33' E 009°58'0 0.0
2018-May-11 02:28N 53°33' E 009°58'0 0.0
2018-May-11 01:58N 53°33' E 009°58'0 0.0
2018-May-11 01:28N 53°33' E 009°58'0 0.0
2018-May-11 00:58N 53°33' E 009°58'0 0.0
2018-May-11 00:28N 53°33' E 009°58'0 0.0
2018-May-10 23:58N 53°33' E 009°58'0 0.0
2018-May-10 23:28N 53°33' E 009°58'0 0.0
2018-May-10 22:58N 53°33' E 009°58'  
Track history (hours):
 
Tides and Currents Weather Stations Pressure Air Temp Water Temp Dewpoint Dewpoint Depression Visibility Wind Speed Wind Dir Waves Ship Positions

Sedov (Russia)

Last reported at 2018-May-20 22:45 UTC. Time now 2018-May-21 15:13 UTC.
Position N 56°50' E 007°20'.

Length 118 m; draft 6.5 m.

Type: Sailing vessel. MMSI: 273510000.

Date/timePositionNaut miles runAvg speedWind from/ knotsBaromVisibWave heightAir tempDewpointWater temp
2018-May-20 22:45N 56°50' E 007°20'2 8.0
2018-May-20 22:29N 56°48' E 007°20'2 4.0
2018-May-20 21:58N 56°46' E 007°20'0 0.7
2018-May-20 21:25N 56°46' E 007°20'0 0.7
2018-May-20 20:58N 56°45' E 007°21'0 0.9
2018-May-20 20:28N 56°45' E 007°21'0 0.6
2018-May-20 19:52N 56°45' E 007°22'3 0.2
2018-May-20 07:40N 56°44' E 007°26'0 0.4
2018-May-20 07:28N 56°44' E 007°26'0 0.2
2018-May-20 06:58N 56°44' E 007°27'0 0.2
2018-May-20 06:22N 56°44' E 007°27'0 0.1
2018-May-20 05:10N 56°44' E 007°27'0 0.2
2018-May-20 04:58N 56°44' E 007°27'0 0.2
2018-May-20 04:28N 56°44' E 007°27'0 0.3
2018-May-20 03:58N 56°44' E 007°27'0 0.4
2018-May-20 03:28N 56°44' E 007°27'0 0.4
2018-May-20 02:58N 56°44' E 007°27'0 0.4
2018-May-20 02:25N 56°44' E 007°27'0 0.4
2018-May-20 01:58N 56°44' E 007°26'3 0.3
2018-May-19 17:54N 56°45' E 007°21'6 6.5
2018-May-19 17:01N 56°50' E 007°23'1 8.4
2018-May-19 16:54N 56°51' E 007°24'4 8.3
2018-May-19 16:29N 56°55' E 007°26'5 8.5
2018-May-19 15:56N 56°59' E 007°28'5 8.5
2018-May-19 15:24N 57°03' E 007°31'7 8.4
2018-May-19 14:36N 57°10' E 007°35'1 8.1
2018-May-19 14:29N 57°11' E 007°35'4 8.1
2018-May-19 13:58N 57°15' E 007°37'4 7.9
2018-May-19 13:27N 57°18' E 007°40'40 7.9
2018-May-19 08:25N 57°29' E 008°51'3 7.9
2018-May-19 08:00N 57°30' E 008°57'5 8.0
2018-May-19 07:24N 57°31' E 009°06'2 3.6
2018-May-19 06:42N 57°32' E 009°10'0 1.0
2018-May-19 06:29N 57°32' E 009°11'1 1.3
2018-May-19 06:00N 57°32' E 009°12'0 0.6
2018-May-19 05:30N 57°32' E 009°12'0 0.3
2018-May-19 04:48N 57°32' E 009°13'0 0.2
2018-May-19 04:30N 57°32' E 009°13'0 0.4
2018-May-19 03:16N 57°32' E 009°14'14 1.6
2018-May-18 18:58N 57°35' E 009°38'1 2.0
2018-May-18 18:30N 57°36' E 009°40'1 2.2
2018-May-18 18:00N 57°36' E 009°42'1 2.8
2018-May-18 17:30N 57°36' E 009°44'2 3.3
2018-May-18 17:00N 57°37' E 009°47'2 3.6
2018-May-18 16:30N 57°37' E 009°51'2 3.9
2018-May-18 16:00N 57°38' E 009°54'3 5.1
2018-May-18 15:30N 57°36' E 009°58'0 0.9
2018-May-18 15:00N 57°36' E 009°59'0 0.0
2018-May-18 14:19N 57°36' E 009°59'0 0.0
2018-May-18 13:37N 57°36' E 009°59'0 0.0
2018-May-18 13:25N 57°36' E 009°59'0 0.0
2018-May-18 12:43N 57°36' E 009°59'0 0.0
2018-May-18 04:25N 57°36' E 009°59'0 0.0
2018-May-18 03:25N 57°36' E 009°59'0 0.0
2018-May-17 19:10N 57°36' E 009°59'0 0.0
2018-May-17 01:28N 57°36' E 009°59'0 0.0
2018-May-17 00:55N 57°36' E 009°59'0 0.0
2018-May-17 00:25N 57°36' E 009°59'0 0.0
2018-May-16 23:46N 57°36' E 009°59'0 0.0
2018-May-16 23:10N 57°36' E 009°59'0 0.0
2018-May-16 22:58N 57°36' E 009°58'0 0.0
2018-May-16 22:28N 57°36' E 009°59'0 0.0
2018-May-16 21:49N 57°36' E 009°59'0 0.0
2018-May-16 21:28N 57°36' E 009°59'0 0.0
2018-May-16 20:58N 57°36' E 009°59'0 0.0
2018-May-16 20:25N 57°36' E 009°59'0 0.0
2018-May-16 19:58N 57°36' E 009°59'0 0.0
2018-May-16 19:16N 57°36' E 009°59'0 0.0
2018-May-16 16:46N 57°36' E 009°59'0 0.0
2018-May-16 16:04N 57°36' E 009°59'0 0.0
2018-May-16 15:55N 57°36' E 009°59'0 0.0
2018-May-16 15:25N 57°36' E 009°58'0 0.0
2018-May-16 15:00N 57°36' E 009°59'0 0.0
2018-May-16 14:30N 57°36' E 009°59'0 0.0
2018-May-16 14:00N 57°36' E 009°59'0 0.0
2018-May-16 13:30N 57°36' E 009°59'0 0.0
2018-May-16 12:59N 57°36' E 009°58'0 0.0
2018-May-16 12:30N 57°36' E 009°59'0 0.0
2018-May-16 12:00N 57°36' E 009°59'0 0.3
2018-May-16 11:30N 57°36' E 009°58'2 3.7
2018-May-16 11:00N 57°37' E 009°56'4 8.7
2018-May-16 10:30N 57°38' E 009°48'2 3.1
2018-May-16 10:00N 57°39' E 009°46'0 1.0
2018-May-16 09:31N 57°39' E 009°45'1 1.0
2018-May-16 09:00N 57°39' E 009°44'1 1.6
2018-May-16 08:30N 57°40' E 009°43'2 3.0
2018-May-16 08:00N 57°41' E 009°41'2 4.4
2018-May-16 07:30N 57°40' E 009°37'3 5.2
2018-May-16 07:00N 57°40' E 009°32'3 5.3
2018-May-16 06:30N 57°39' E 009°27'3 5.5
2018-May-16 06:00N 57°38' E 009°23'3 5.4
2018-May-16 05:31N 57°37' E 009°18'4 7.4
2018-May-16 05:00N 57°35' E 009°12'5 8.9
2018-May-16 04:30N 57°34' E 009°04'5 8.8
2018-May-16 03:57N 57°32' E 008°56'171 6.9
2018-May-15 03:11N 54°59' E 006°39'2 8.8
2018-May-15 02:58N 54°57' E 006°41'10 9.2
2018-May-15 01:53N 54°50' E 006°52'4 9.4
2018-May-15 01:30N 54°47' E 006°56'5 9.1
2018-May-15 01:00N 54°43' E 007°00'4 9.2
2018-May-15 00:30N 54°39' E 007°04'8 9.1
2018-May-14 23:37N 54°32' E 007°12'44 8.1
2018-May-14 18:15N 54°01' E 008°04'4 8.5
2018-May-14 17:49N 54°01' E 008°10'4 9.2
2018-May-14 17:26N 54°00' E 008°16'510.5
2018-May-14 16:59N 53°59' E 008°24'511.2
2018-May-14 16:30N 53°58' E 008°33'610.8
2018-May-14 16:00N 53°55' E 008°41'611.6
2018-May-14 15:30N 53°51' E 008°46'611.2
2018-May-14 15:01N 53°51' E 008°56'510.2
2018-May-14 14:30N 53°52' E 009°04'5 9.4
2018-May-14 14:00N 53°53' E 009°12'4 7.9
2018-May-14 13:30N 53°52' E 009°18'4 7.3
2018-May-14 13:00N 53°49' E 009°22'3 6.6
2018-May-14 12:30N 53°46' E 009°24'3 6.4
2018-May-14 12:00N 53°43' E 009°28'3 5.6
2018-May-14 11:30N 53°41' E 009°30'3 5.2
2018-May-14 11:00N 53°39' E 009°32'3 5.3
2018-May-14 10:30N 53°37' E 009°35'3 5.4
2018-May-14 10:00N 53°35' E 009°38'3 6.6
2018-May-14 09:30N 53°34' E 009°43'4 8.9
2018-May-14 09:00N 53°33' E 009°50'4 8.4
2018-May-14 08:30N 53°33' E 009°58'0 0.6
2018-May-14 07:58N 53°33' E 009°58'0 0.0
2018-May-14 07:28N 53°33' E 009°58'0 0.0
2018-May-14 06:58N 53°33' E 009°58'0 0.0
2018-May-14 06:28N 53°33' E 009°58'0 0.0
2018-May-14 05:58N 53°33' E 009°58'0 0.0
2018-May-14 05:28N 53°33' E 009°58'0 0.0
2018-May-14 04:58N 53°33' E 009°58'0 0.0
2018-May-14 04:28N 53°33' E 009°58'0 0.0
2018-May-14 03:58N 53°33' E 009°58'0 0.0
2018-May-14 03:28N 53°33' E 009°58'0 0.0
2018-May-14 02:58N 53°33' E 009°58'0 0.0
2018-May-14 02:28N 53°33' E 009°58'0 0.0
2018-May-14 01:58N 53°33' E 009°58'0 0.0
2018-May-14 01:28N 53°33' E 009°58'0 0.0
2018-May-14 00:58N 53°33' E 009°58'0 0.0
2018-May-14 00:28N 53°33' E 009°58'0 0.0
2018-May-13 23:58N 53°33' E 009°58'0 0.0
2018-May-13 23:28N 53°33' E 009°58'0 0.0
2018-May-13 22:58N 53°33' E 009°58'0 0.0
2018-May-13 22:28N 53°33' E 009°58'0 0.0
2018-May-13 21:58N 53°33' E 009°58'0 0.0
2018-May-13 21:28N 53°33' E 009°58'0 0.0
2018-May-13 20:58N 53°33' E 009°58'0 0.0
2018-May-13 20:30N 53°33' E 009°58'0 0.5
2018-May-13 20:00N 53°33' E 009°58'3 5.0
2018-May-13 19:31N 53°32' E 009°53'3 5.0
2018-May-13 19:00N 53°33' E 009°49'3 5.5
2018-May-13 18:30N 53°34' E 009°45'3 5.1
2018-May-13 18:00N 53°34' E 009°40'3 5.3
2018-May-13 17:30N 53°34' E 009°45'3 7.0
2018-May-13 17:00N 53°33' E 009°51'3 6.9
2018-May-13 16:30N 53°33' E 009°56'2 3.6
2018-May-13 16:00N 53°32' E 009°59'0 0.1
2018-May-13 15:30N 53°32' E 009°59'1 1.9
2018-May-13 15:00N 53°33' E 009°58'0 0.0
2018-May-13 14:28N 53°33' E 009°58'0 0.0
2018-May-13 13:58N 53°33' E 009°58'0 0.0
2018-May-13 13:28N 53°33' E 009°58'0 0.0
2018-May-13 12:58N 53°33' E 009°58'0 0.0
2018-May-13 12:28N 53°33' E 009°58'0 0.0
2018-May-13 11:58N 53°33' E 009°58'0 0.0
2018-May-13 11:25N 53°33' E 009°58'0 0.0
2018-May-13 10:55N 53°33' E 009°58'0 0.0
2018-May-13 10:28N 53°33' E 009°58'0 0.0
2018-May-13 09:58N 53°33' E 009°58'0 0.0
2018-May-13 09:28N 53°33' E 009°58'0 0.0
2018-May-13 08:58N 53°33' E 009°58'0 0.0
2018-May-13 08:28N 53°33' E 009°58'0 0.0
2018-May-13 07:58N 53°33' E 009°58'0 0.0
2018-May-13 07:28N 53°33' E 009°58'0 0.0
2018-May-13 06:58N 53°33' E 009°58'0 0.0
2018-May-13 06:28N 53°33' E 009°58'0 0.0
2018-May-13 05:58N 53°33' E 009°58'0 0.0
2018-May-13 05:28N 53°33' E 009°58'0 0.0
2018-May-13 04:58N 53°33' E 009°58'0 0.0
2018-May-13 04:28N 53°33' E 009°58'0 0.0
2018-May-13 03:58N 53°33' E 009°58'0 0.0
2018-May-13 03:28N 53°33' E 009°58'0 0.0
2018-May-13 02:58N 53°33' E 009°58'0 0.0
2018-May-13 02:28N 53°33' E 009°58'0 0.0
2018-May-13 01:58N 53°33' E 009°58'0 0.0
2018-May-13 01:28N 53°33' E 009°58'0 0.0
2018-May-13 00:58N 53°33' E 009°58'0 0.0
2018-May-13 00:28N 53°33' E 009°58'0 0.0
2018-May-12 23:58N 53°33' E 009°58'0 0.0
2018-May-12 23:28N 53°33' E 009°58'0 0.0
2018-May-12 22:58N 53°33' E 009°58'0 0.0
2018-May-12 22:28N 53°33' E 009°58'0 0.0
2018-May-12 21:58N 53°33' E 009°58'0 0.0
2018-May-12 21:28N 53°33' E 009°58'0 0.0
2018-May-12 20:58N 53°33' E 009°58'0 0.0
2018-May-12 20:28N 53°33' E 009°58'0 0.0
2018-May-12 19:58N 53°33' E 009°58'0 0.0
2018-May-12 19:28N 53°33' E 009°58'0 0.1
2018-May-12 18:58N 53°33' E 009°58'0 0.1
2018-May-12 18:28N 53°33' E 009°58'0 0.0
2018-May-12 17:58N 53°33' E 009°58'0 0.0
2018-May-12 17:28N 53°33' E 009°58'0 0.0
2018-May-12 16:58N 53°33' E 009°58'0 0.0
2018-May-12 16:28N 53°33' E 009°58'0 0.0
2018-May-12 15:58N 53°33' E 009°58'0 0.0
2018-May-12 15:28N 53°33' E 009°58'0 0.0
2018-May-12 14:58N 53°33' E 009°58'0 0.0
2018-May-12 14:28N 53°33' E 009°58'0 0.0
2018-May-12 13:58N 53°33' E 009°58'0 0.0
2018-May-12 13:28N 53°33' E 009°58'0 0.0
2018-May-12 12:58N 53°33' E 009°58'0 0.0
2018-May-12 12:28N 53°33' E 009°58'0 0.0
2018-May-12 11:58N 53°33' E 009°58'0 0.0
2018-May-12 11:28N 53°33' E 009°58'0 0.0
2018-May-12 10:58N 53°33' E 009°58'0 0.0
2018-May-12 10:28N 53°33' E 009°58'0 0.0
2018-May-12 09:58N 53°33' E 009°58'0 0.0
2018-May-12 09:28N 53°33' E 009°58'0 0.0
2018-May-12 08:58N 53°33' E 009°58'0 0.0
2018-May-12 08:28N 53°33' E 009°58'0 0.0
2018-May-12 07:58N 53°33' E 009°58'0 0.0
2018-May-12 07:28N 53°33' E 009°58'0 0.0
2018-May-12 06:58N 53°33' E 009°58'0 0.0
2018-May-12 06:28N 53°33' E 009°58'0 0.0
2018-May-12 05:58N 53°33' E 009°58'0 0.0
2018-May-12 05:28N 53°33' E 009°58'0 0.0
2018-May-12 04:58N 53°33' E 009°58'0 0.0
2018-May-12 04:28N 53°33' E 009°58'0 0.0
2018-May-12 03:58N 53°33' E 009°58'0 0.0
2018-May-12 03:28N 53°33' E 009°58'0 0.0
2018-May-12 02:58N 53°33' E 009°58'0 0.0
2018-May-12 02:28N 53°33' E 009°58'0 0.0
2018-May-12 01:58N 53°33' E 009°58'0 0.0
2018-May-12 01:28N 53°33' E 009°58'0 0.0
2018-May-12 00:58N 53°33' E 009°58'0 0.0
2018-May-12 00:28N 53°33' E 009°58'0 0.0
2018-May-11 23:58N 53°33' E 009°58'0 0.0
2018-May-11 23:28N 53°33' E 009°58'0 0.0
2018-May-11 22:58N 53°33' E 009°58'0 0.0
2018-May-11 22:28N 53°33' E 009°58'0 0.0
2018-May-11 21:58N 53°33' E 009°58'0 0.0
2018-May-11 21:28N 53°33' E 009°58'0 0.0
2018-May-11 20:58N 53°33' E 009°58'0 0.0
2018-May-11 20:28N 53°33' E 009°58'0 0.0
2018-May-11 19:58N 53°33' E 009°58'0 0.0
2018-May-11 19:28N 53°33' E 009°58'0 0.0
2018-May-11 18:58N 53°33' E 009°58'0 0.0
2018-May-11 18:28N 53°33' E 009°58'0 0.0
2018-May-11 17:58N 53°33' E 009°58'0 0.0
2018-May-11 17:28N 53°33' E 009°58'0 0.0
2018-May-11 16:58N 53°33' E 009°58'0 0.0
2018-May-11 16:28N 53°33' E 009°58'0 0.0
2018-May-11 15:58N 53°33' E 009°58'0 0.0
2018-May-11 15:28N 53°33' E 009°58'0 0.0
2018-May-11 14:58N 53°33' E 009°58'0 0.0
2018-May-11 14:28N 53°33' E 009°58'0 0.0
2018-May-11 13:58N 53°33' E 009°58'0 0.0
2018-May-11 13:28N 53°33' E 009°58'0 0.0
2018-May-11 12:58N 53°33' E 009°58'0 0.0
2018-May-11 12:28N 53°33' E 009°58'0 0.0
2018-May-11 11:55N 53°33' E 009°58'0 0.0
2018-May-11 11:28N 53°33' E 009°58'0 0.0
2018-May-11 10:58N 53°33' E 009°58'0 0.0
2018-May-11 10:28N 53°33' E 009°58'0 0.0
2018-May-11 09:58N 53°33' E 009°58'0 0.0
2018-May-11 09:28N 53°33' E 009°58'0 0.0
2018-May-11 08:58N 53°33' E 009°58'0 0.0
2018-May-11 08:28N 53°33' E 009°58'0 0.0
2018-May-11 07:58N 53°33' E 009°58'0 0.0
2018-May-11 07:28N 53°33' E 009°58'0 0.0
2018-May-11 06:58N 53°33' E 009°58'0 0.0
2018-May-11 06:28N 53°33' E 009°58'0 0.0
2018-May-11 05:55N 53°33' E 009°58'0 0.0
2018-May-11 05:28N 53°33' E 009°58'0 0.0
2018-May-11 04:58N 53°33' E 009°58'0 0.0
2018-May-11 04:28N 53°33' E 009°58'0 0.0
2018-May-11 03:58N 53°33' E 009°58'0 0.0
2018-May-11 03:28N 53°33' E 009°58'0 0.0
2018-May-11 02:58N 53°33' E 009°58'0 0.0
2018-May-11 02:28N 53°33' E 009°58'0 0.0
2018-May-11 01:58N 53°33' E 009°58'0 0.0
2018-May-11 01:28N 53°33' E 009°58'0 0.0
2018-May-11 00:58N 53°33' E 009°58'0 0.0
2018-May-11 00:28N 53°33' E 009°58'0 0.0
2018-May-10 23:58N 53°33' E 009°58'0 0.0
2018-May-10 23:28N 53°33' E 009°58'0 0.0
2018-May-10 22:58N 53°33' E 009°58'  

Dump ship's entire track history